sensor_id;sensor_type;location;lat;lon;timestamp;pressure;altitude;pressure_sealevel;temperature;humidity
38191;BME280;25191;47.510;19.124;2024-03-02T00:12:15;99701.53;;;21.87;54.49
38191;BME280;25191;47.510;19.124;2024-03-02T00:32:16;99685.19;;;21.84;54.39
38191;BME280;25191;47.510;19.124;2024-03-02T00:52:24;99704.84;;;21.80;54.51
38191;BME280;25191;47.510;19.124;2024-03-02T01:12:24;99686.41;;;21.80;54.07
38191;BME280;25191;47.510;19.124;2024-03-02T01:32:25;99648.97;;;21.76;54.51
38191;BME280;25191;47.510;19.124;2024-03-02T01:52:29;99644.00;;;21.73;54.35
38191;BME280;25191;47.510;19.124;2024-03-02T02:12:30;99663.94;;;21.75;53.99
38191;BME280;25191;47.510;19.124;2024-03-02T02:32:30;99677.81;;;21.68;54.02
38191;BME280;25191;47.510;19.124;2024-03-02T02:52:35;99656.63;;;21.69;54.30
38191;BME280;25191;47.510;19.124;2024-03-02T03:12:36;99685.84;;;21.66;54.11
38191;BME280;25191;47.510;19.124;2024-03-02T03:32:37;99676.56;;;21.62;54.06
38191;BME280;25191;47.510;19.124;2024-03-02T03:52:37;99706.53;;;21.61;54.34
38191;BME280;25191;47.510;19.124;2024-03-02T04:12:38;99714.56;;;21.59;54.20
38191;BME280;25191;47.510;19.124;2024-03-02T04:32:38;99712.31;;;21.55;54.12
38191;BME280;25191;47.510;19.124;2024-03-02T04:52:38;99720.38;;;21.53;54.50
38191;BME280;25191;47.510;19.124;2024-03-02T05:12:39;99718.97;;;21.49;54.62
38191;BME280;25191;47.510;19.124;2024-03-02T05:32:43;99712.34;;;21.65;54.00
38191;BME280;25191;47.510;19.124;2024-03-02T05:52:43;99741.59;;;21.71;53.56
38191;BME280;25191;47.510;19.124;2024-03-02T06:12:43;99761.03;;;21.70;53.65
38191;BME280;25191;47.510;19.124;2024-03-02T06:32:44;99767.84;;;21.73;53.80
38191;BME280;25191;47.510;19.124;2024-03-02T06:52:46;99774.34;;;21.79;54.09
38191;BME280;25191;47.510;19.124;2024-03-02T07:12:46;99776.31;;;21.86;54.65
38191;BME280;25191;47.510;19.124;2024-03-02T07:32:50;99781.56;;;22.06;53.80
38191;BME280;25191;47.510;19.124;2024-03-02T07:52:51;99797.00;;;22.01;55.11
38191;BME280;25191;47.510;19.124;2024-03-02T08:12:52;99806.81;;;21.99;55.38
38191;BME280;25191;47.510;19.124;2024-03-02T08:32:52;99812.25;;;21.87;55.15
38191;BME280;25191;47.510;19.124;2024-03-02T08:52:53;99816.66;;;21.87;55.43
38191;BME280;25191;47.510;19.124;2024-03-02T09:12:53;99813.22;;;21.86;55.01
38191;BME280;25191;47.510;19.124;2024-03-02T09:32:56;99820.97;;;21.88;54.79
38191;BME280;25191;47.510;19.124;2024-03-02T09:52:56;99823.75;;;21.86;54.31
38191;BME280;25191;47.510;19.124;2024-03-02T10:13:04;99823.47;;;21.89;54.43
38191;BME280;25191;47.510;19.124;2024-03-02T10:33:05;99816.97;;;22.03;54.47
38191;BME280;25191;47.510;19.124;2024-03-02T10:53:06;99818.50;;;18.85;48.23
38191;BME280;25191;47.510;19.124;2024-03-02T11:13:09;99797.78;;;21.72;49.05
38191;BME280;25191;47.510;19.124;2024-03-02T11:33:10;99786.44;;;22.11;52.87
38191;BME280;25191;47.510;19.124;2024-03-02T11:53:10;99774.78;;;22.13;54.66
38191;BME280;25191;47.510;19.124;2024-03-02T12:13:12;99770.88;;;21.98;54.68
38191;BME280;25191;47.510;19.124;2024-03-02T12:33:13;99779.91;;;22.15;55.53
38191;BME280;25191;47.510;19.124;2024-03-02T12:53:15;99781.44;;;22.07;55.45
38191;BME280;25191;47.510;19.124;2024-03-02T13:13:15;99786.16;;;22.04;55.50
38191;BME280;25191;47.510;19.124;2024-03-02T13:33:16;99783.09;;;21.99;55.21
38191;BME280;25191;47.510;19.124;2024-03-02T13:53:22;99791.28;;;22.05;54.91
38191;BME280;25191;47.510;19.124;2024-03-02T14:13:24;99789.47;;;22.26;57.67
38191;BME280;25191;47.510;19.124;2024-03-02T14:33:27;99806.41;;;22.13;56.92
38191;BME280;25191;47.510;19.124;2024-03-02T14:53:28;99801.41;;;22.00;56.44
38191;BME280;25191;47.510;19.124;2024-03-02T15:13:28;99802.66;;;21.96;56.23
38191;BME280;25191;47.510;19.124;2024-03-02T15:33:29;99797.94;;;22.00;55.81
38191;BME280;25191;47.510;19.124;2024-03-02T15:53:31;99808.34;;;22.21;55.99
38191;BME280;25191;47.510;19.124;2024-03-02T16:13:31;99815.69;;;22.07;56.63
38191;BME280;25191;47.510;19.124;2024-03-02T16:33:32;99815.84;;;21.96;56.10
38191;BME280;25191;47.510;19.124;2024-03-02T16:53:33;99814.59;;;21.90;55.24
38191;BME280;25191;47.510;19.124;2024-03-02T17:13:34;99818.59;;;21.95;56.75
38191;BME280;25191;47.510;19.124;2024-03-02T17:33:36;99845.53;;;21.98;56.31
38191;BME280;25191;47.510;19.124;2024-03-02T17:53:36;99846.09;;;22.12;55.79
38191;BME280;25191;47.510;19.124;2024-03-02T18:13:38;99855.09;;;21.99;55.94
38191;BME280;25191;47.510;19.124;2024-03-02T18:33:38;99857.47;;;22.02;55.70
38191;BME280;25191;47.510;19.124;2024-03-02T18:53:39;99855.78;;;21.91;55.79
38191;BME280;25191;47.510;19.124;2024-03-02T19:13:39;99872.97;;;21.86;56.53
38191;BME280;25191;47.510;19.124;2024-03-02T19:33:40;99864.94;;;21.78;56.45
38191;BME280;25191;47.510;19.124;2024-03-02T19:53:42;99881.56;;;21.78;56.08
38191;BME280;25191;47.510;19.124;2024-03-02T20:13:43;99886.13;;;21.76;56.28
38191;BME280;25191;47.510;19.124;2024-03-02T20:33:43;99883.50;;;21.76;56.67
38191;BME280;25191;47.510;19.124;2024-03-02T20:53:44;99866.59;;;21.48;56.04
38191;BME280;25191;47.510;19.124;2024-03-02T21:13:45;99863.09;;;21.68;55.61
38191;BME280;25191;47.510;19.124;2024-03-02T21:33:47;99849.91;;;21.58;55.52
38191;BME280;25191;47.510;19.124;2024-03-02T21:53:47;99856.13;;;21.57;55.83
38191;BME280;25191;47.510;19.124;2024-03-02T22:34:19;99872.66;;;21.59;56.23
38191;BME280;25191;47.510;19.124;2024-03-02T22:54:21;99868.13;;;21.50;55.93
38191;BME280;25191;47.510;19.124;2024-03-02T23:14:23;99877.44;;;21.54;56.30
38191;BME280;25191;47.510;19.124;2024-03-02T23:34:28;99869.09;;;21.49;56.34
38191;BME280;25191;47.510;19.124;2024-03-02T23:54:28;99877.84;;;21.50;56.27
